Time;durP1;ratioP1;P1;durP2;ratioP2;P2;SDS_P1;SDS_P2;PMS_P1;PMS_P2;Temp;Humidity;BMP_temperature;BMP_pressure;BME280_temperature;BME280_humidity;BME280_pressure;Samples;Min_cycle;Max_cycle;Signal;HPM_P1;HPM_P2
2023/05/28 00:00:33;;;;;;;10.50;7.00;;;14.40;99.90;;;;;;5027390;28;20186;-69
2023/05/28 00:02:59;;;;;;;9.30;7.20;;;14.30;99.90;;;;;;5027154;28;20205;-70
2023/05/28 00:05:25;;;;;;;10.17;6.67;;;14.30;99.90;;;;;;5027400;28;20588;-69
2023/05/28 00:07:51;;;;;;;9.63;7.30;;;14.10;99.90;;;;;;5027315;28;20460;-69
2023/05/28 00:10:16;;;;;;;10.10;7.03;;;14.00;99.90;;;;;;5027250;28;20640;-69
2023/05/28 00:12:42;;;;;;;10.37;6.97;;;13.90;99.90;;;;;;5027567;28;20191;-69
2023/05/28 00:15:09;;;;;;;7.13;6.13;;;13.90;99.90;;;;;;5027425;28;20174;-69
2023/05/28 00:17:35;;;;;;;10.23;7.17;;;13.80;99.90;;;;;;5023854;28;20480;-69
2023/05/28 00:20:01;;;;;;;9.90;6.83;;;13.70;99.90;;;;;;5027103;28;20453;-70
2023/05/28 00:22:26;;;;;;;11.23;7.77;;;13.60;99.90;;;;;;5031298;28;20186;-69
2023/05/28 00:24:52;;;;;;;8.57;6.70;;;13.50;99.90;;;;;;5030858;28;20557;-70
2023/05/28 00:27:17;;;;;;;8.50;6.10;;;13.40;99.90;;;;;;5030915;28;20218;-69
2023/05/28 00:29:43;;;;;;;11.87;6.70;;;13.30;99.90;;;;;;5030828;28;20190;-69
2023/05/28 00:32:09;;;;;;;8.90;6.73;;;13.30;99.90;;;;;;5031154;28;20191;-69
2023/05/28 00:34:35;;;;;;;10.17;6.10;;;13.30;99.90;;;;;;5029703;28;20793;-69
2023/05/28 00:37:01;;;;;;;6.90;6.03;;;13.20;99.90;;;;;;5031166;28;20433;-69
2023/05/28 00:39:27;;;;;;;10.50;6.97;;;13.10;99.90;;;;;;5031034;28;20984;-70
2023/05/28 00:42:07;;;;;;;9.60;6.37;;;13.10;99.90;;;;;;5026974;28;20918;-69
2023/05/28 00:44:33;;;;;;;9.90;6.20;;;13.10;99.90;;;;;;5026888;28;20194;-69
2023/05/28 00:47:00;;;;;;;9.30;6.93;;;13.10;99.90;;;;;;5030761;28;20973;-69
2023/05/28 00:49:26;;;;;;;10.33;7.80;;;13.00;99.90;;;;;;5030753;28;20206;-70
2023/05/28 00:51:54;;;;;;;9.87;7.10;;;13.00;99.90;;;;;;5030994;28;20456;-70
2023/05/28 00:54:21;;;;;;;9.43;7.07;;;12.90;99.90;;;;;;5029766;28;20436;-70
2023/05/28 00:56:48;;;;;;;9.73;7.07;;;12.80;99.90;;;;;;5030166;28;20459;-69
2023/05/28 00:59:16;;;;;;;10.83;6.57;;;12.80;99.90;;;;;;5030179;28;20892;-69
2023/05/28 01:01:42;;;;;;;8.90;6.17;;;12.80;99.90;;;;;;5030140;28;20433;-70
2023/05/28 01:04:08;;;;;;;10.00;6.73;;;12.70;99.90;;;;;;5030408;28;20413;-70
2023/05/28 01:06:37;;;;;;;10.10;6.70;;;12.70;99.90;;;;;;5029758;28;20452;-69
2023/05/28 01:09:05;;;;;;;12.57;7.60;;;12.70;99.90;;;;;;5030610;28;20421;-69
2023/05/28 01:11:31;;;;;;;12.30;7.80;;;12.70;99.90;;;;;;5029091;28;20414;-69
2023/05/28 01:13:57;;;;;;;10.20;7.20;;;12.70;99.90;;;;;;5030427;28;20433;-69
2023/05/28 01:16:23;;;;;;;9.20;7.00;;;12.70;99.90;;;;;;5030408;28;20511;-69
2023/05/28 01:18:49;;;;;;;10.80;6.70;;;12.60;99.90;;;;;;5030568;28;20402;-69
2023/05/28 01:21:15;;;;;;;9.20;7.20;;;12.60;99.90;;;;;;5030298;28;20662;-69
2023/05/28 01:23:48;;;;;;;8.57;7.00;;;12.60;99.90;;;;;;5030389;28;20409;-69
2023/05/28 01:26:15;;;;;;;9.80;7.50;;;12.50;99.90;;;;;;5030426;28;20950;-69
2023/05/28 01:28:48;;;;;;;10.40;7.70;;;12.40;99.90;;;;;;5029905;28;21387;-69
2023/05/28 01:31:15;;;;;;;9.60;6.63;;;12.40;99.90;;;;;;5029881;28;20417;-70
2023/05/28 01:33:44;;;;;;;10.40;7.27;;;12.40;99.90;;;;;;5029534;28;20406;-69
2023/05/28 01:36:37;;;;;;;11.67;7.70;;;12.30;99.90;;;;;;5030081;28;20425;-69
2023/05/28 01:39:03;;;;;;;10.27;7.67;;;12.30;99.90;;;;;;5029969;28;20410;-69
2023/05/28 01:41:30;;;;;;;8.93;6.50;;;12.30;99.90;;;;;;5029673;28;20963;-69
2023/05/28 01:43:56;;;;;;;10.87;7.40;;;12.20;99.90;;;;;;5029900;28;20410;-69
2023/05/28 01:46:23;;;;;;;11.73;6.90;;;12.20;99.90;;;;;;5029998;28;20852;-69
2023/05/28 01:48:48;;;;;;;10.93;7.20;;;12.20;99.90;;;;;;5029757;28;20504;-69
2023/05/28 01:51:21;;;;;;;11.17;7.63;;;12.30;99.90;;;;;;5029770;28;20449;-69
2023/05/28 01:53:47;;;;;;;12.17;7.63;;;12.40;99.90;;;;;;5029641;28;20174;-69
2023/05/28 01:56:12;;;;;;;9.00;7.17;;;12.50;99.90;;;;;;5029752;28;20944;-69
2023/05/28 01:58:38;;;;;;;12.63;8.13;;;12.40;99.90;;;;;;5029649;28;20189;-69
2023/05/28 02:01:22;;;;;;;10.87;7.53;;;12.30;99.90;;;;;;5029680;28;20178;-69
2023/05/28 02:03:48;;;;;;;9.30;6.60;;;12.20;99.90;;;;;;5029648;28;20186;-69
2023/05/28 02:06:14;;;;;;;10.27;8.30;;;12.10;99.90;;;;;;5028089;28;20544;-69
2023/05/28 02:08:39;;;;;;;10.10;7.27;;;12.00;99.90;;;;;;5029641;28;20206;-69
2023/05/28 02:11:05;;;;;;;8.67;7.37;;;11.90;99.90;;;;;;5029456;28;20171;-69
2023/05/28 02:13:31;;;;;;;9.53;7.03;;;11.90;99.90;;;;;;5029090;28;20575;-69
2023/05/28 02:15:57;;;;;;;11.40;7.03;;;11.90;99.90;;;;;;5029542;28;20578;-69
2023/05/28 02:18:22;;;;;;;13.37;8.00;;;11.90;99.90;;;;;;5029297;28;20413;-69
2023/05/28 02:20:48;;;;;;;8.90;6.67;;;11.80;99.90;;;;;;5029327;28;20212;-69
2023/05/28 02:23:14;;;;;;;10.10;6.90;;;11.80;99.90;;;;;;5025037;28;20515;-69
2023/05/28 02:25:40;;;;;;;9.30;7.23;;;11.70;99.90;;;;;;5028727;28;20190;-69
2023/05/28 02:28:05;;;;;;;12.43;7.97;;;11.60;99.90;;;;;;5025657;28;20221;-69
2023/05/28 02:30:31;;;;;;;10.50;6.67;;;11.60;99.90;;;;;;5028787;28;20197;-69
2023/05/28 02:32:56;;;;;;;11.83;7.37;;;11.60;99.90;;;;;;5029132;28;20168;-69
2023/05/28 02:35:23;;;;;;;8.70;7.00;;;11.50;99.90;;;;;;5028075;28;20181;-69
2023/05/28 02:37:49;;;;;;;7.80;7.00;;;11.50;99.90;;;;;;5025435;28;20202;-69
2023/05/28 02:40:15;;;;;;;10.33;6.87;;;11.50;99.90;;;;;;5028583;28;20921;-69
2023/05/28 02:42:40;;;;;;;14.20;8.53;;;11.50;99.90;;;;;;5028658;28;20413;-69
2023/05/28 02:45:06;;;;;;;9.83;6.97;;;11.60;99.90;;;;;;5028106;28;20662;-69
2023/05/28 02:47:32;;;;;;;8.07;6.60;;;11.60;99.90;;;;;;5028510;28;20217;-69
2023/05/28 02:49:58;;;;;;;13.70;6.67;;;11.60;99.90;;;;;;5028996;28;20496;-69
2023/05/28 02:52:23;;;;;;;11.00;7.10;;;11.70;99.90;;;;;;5028899;28;20174;-69
2023/05/28 02:54:49;;;;;;;10.57;7.53;;;11.60;99.90;;;;;;5028706;28;20174;-70
2023/05/28 02:57:15;;;;;;;11.30;6.50;;;11.50;99.90;;;;;;5028572;28;20198;-69
2023/05/28 02:59:40;;;;;;;9.53;7.50;;;11.40;99.90;;;;;;5028575;28;20541;-69
2023/05/28 03:02:06;;;;;;;9.03;7.10;;;11.40;99.90;;;;;;5028739;28;20178;-69
2023/05/28 03:04:32;;;;;;;8.33;7.30;;;11.40;99.90;;;;;;5025428;28;20557;-69
2023/05/28 03:06:58;;;;;;;13.10;7.53;;;11.40;99.90;;;;;;5028347;28;20210;-69
2023/05/28 03:09:23;;;;;;;8.33;6.83;;;11.40;99.90;;;;;;5026781;28;20273;-69
2023/05/28 03:11:49;;;;;;;7.33;6.50;;;11.30;99.90;;;;;;5028708;28;20662;-69
2023/05/28 03:14:15;;;;;;;9.07;7.00;;;11.20;99.90;;;;;;5028269;28;20166;-69
2023/05/28 03:16:41;;;;;;;8.10;7.07;;;11.20;99.90;;;;;;5028318;28;20198;-69
2023/05/28 03:19:06;;;;;;;9.73;8.20;;;11.20;99.90;;;;;;5028284;28;20403;-69
2023/05/28 03:21:32;;;;;;;9.50;7.17;;;11.10;99.90;;;;;;5028127;28;20174;-69
2023/05/28 03:23:58;;;;;;;9.87;7.27;;;11.20;99.90;;;;;;5028242;28;20170;-69
2023/05/28 03:26:23;;;;;;;9.83;7.30;;;11.10;99.90;;;;;;5028281;28;20671;-69
2023/05/28 03:28:49;;;;;;;9.50;7.73;;;11.00;99.90;;;;;;5027977;28;20198;-69
2023/05/28 03:31:15;;;;;;;11.23;7.43;;;10.90;99.90;;;;;;5026887;28;20204;-69
2023/05/28 03:33:41;;;;;;;8.67;6.70;;;10.90;99.90;;;;;;5027995;28;20722;-69
2023/05/28 03:36:07;;;;;;;11.60;6.87;;;10.90;99.90;;;;;;5026922;28;20201;-69
2023/05/28 03:38:33;;;;;;;9.67;7.00;;;10.80;99.90;;;;;;5026616;28;20311;-69
2023/05/28 03:40:59;;;;;;;11.07;7.50;;;10.80;99.90;;;;;;5028189;28;20954;-69
2023/05/28 03:43:25;;;;;;;9.33;8.00;;;10.80;99.90;;;;;;5027987;28;20174;-69
2023/05/28 03:45:51;;;;;;;9.50;7.60;;;10.80;99.90;;;;;;5028154;28;20516;-69
2023/05/28 03:48:16;;;;;;;7.80;6.70;;;10.80;99.90;;;;;;5024041;28;20307;-69
2023/05/28 03:50:42;;;;;;;9.13;6.43;;;10.80;99.90;;;;;;5026266;28;20183;-69
2023/05/28 03:53:08;;;;;;;11.40;7.20;;;10.80;99.90;;;;;;5024729;28;20175;-69
2023/05/28 03:55:35;;;;;;;8.37;6.57;;;10.80;99.90;;;;;;5026966;28;20182;-69
2023/05/28 03:58:02;;;;;;;10.73;7.60;;;10.80;99.90;;;;;;5030573;28;20573;-69
2023/05/28 04:00:27;;;;;;;8.30;7.00;;;11.00;99.90;;;;;;5031417;28;20413;-69
2023/05/28 04:02:53;;;;;;;9.80;6.83;;;11.00;99.90;;;;;;5027162;28;20995;-69
2023/05/28 04:05:19;;;;;;;8.63;6.70;;;11.10;99.90;;;;;;5029177;28;20255;-69
2023/05/28 04:07:45;;;;;;;7.60;6.70;;;11.20;99.90;;;;;;5030773;28;20468;-70
2023/05/28 04:10:11;;;;;;;10.40;7.23;;;11.10;99.90;;;;;;5031731;28;20182;-69
2023/05/28 04:12:36;;;;;;;9.03;6.83;;;11.10;99.90;;;;;;5031878;28;20167;-69
2023/05/28 04:15:03;;;;;;;9.80;7.30;;;11.10;99.90;;;;;;5031335;28;20312;-69
2023/05/28 04:17:29;;;;;;;12.30;7.57;;;11.20;99.90;;;;;;5026622;28;20244;-69
2023/05/28 04:19:55;;;;;;;9.13;7.30;;;11.30;99.90;;;;;;5031570;28;20715;-69
2023/05/28 04:22:24;;;;;;;7.50;6.50;;;11.30;99.90;;;;;;5030680;28;20601;-69
2023/05/28 04:24:54;;;;;;;8.80;7.40;;;11.30;99.90;;;;;;5031641;28;20182;-69
2023/05/28 04:27:19;;;;;;;9.53;7.13;;;11.20;99.90;;;;;;5031308;28;20448;-69
2023/05/28 04:29:46;;;;;;;10.50;7.80;;;11.20;99.90;;;;;;5031410;28;21314;-69
2023/05/28 04:32:11;;;;;;;8.30;7.30;;;11.20;99.90;;;;;;5032181;28;20170;-69
2023/05/28 04:34:40;;;;;;;9.20;7.07;;;11.20;99.90;;;;;;5031299;28;20413;-69
2023/05/28 04:37:07;;;;;;;9.07;6.40;;;11.20;99.90;;;;;;5031404;28;20805;-69
2023/05/28 04:39:33;;;;;;;9.00;5.93;;;11.30;99.90;;;;;;5031464;28;20562;-69
2023/05/28 04:42:03;;;;;;;10.40;7.83;;;11.40;99.90;;;;;;5031967;28;20464;-70
2023/05/28 04:44:30;;;;;;;9.80;7.60;;;11.50;99.90;;;;;;5031258;28;20453;-69
2023/05/28 04:46:58;;;;;;;8.13;7.03;;;11.60;99.90;;;;;;5031243;28;20441;-69
2023/05/28 04:49:25;;;;;;;7.90;6.70;;;11.70;99.90;;;;;;5031164;28;20751;-69
2023/05/28 04:51:51;;;;;;;10.03;7.40;;;11.70;99.90;;;;;;5032169;28;20422;-72
2023/05/28 04:54:17;;;;;;;8.47;6.93;;;11.80;99.90;;;;;;5031089;28;20445;-69
2023/05/28 04:56:43;;;;;;;10.10;7.30;;;12.00;99.90;;;;;;5031517;28;20840;-72
2023/05/28 04:59:09;;;;;;;8.57;6.60;;;12.10;99.90;;;;;;5027351;28;20926;-71
2023/05/28 05:01:39;;;;;;;9.40;7.37;;;12.20;99.90;;;;;;5030926;28;20428;-70
2023/05/28 05:04:06;;;;;;;9.97;7.97;;;12.40;99.90;;;;;;5030927;28;20186;-70
2023/05/28 05:06:32;;;;;;;11.43;8.20;;;12.50;99.90;;;;;;5030184;28;20463;-69
2023/05/28 05:08:59;;;;;;;12.53;7.73;;;12.60;99.90;;;;;;5029989;28;20544;-70
2023/05/28 05:11:26;;;;;;;8.47;7.50;;;12.80;99.90;;;;;;5030346;28;20429;-68
2023/05/28 05:13:52;;;;;;;11.03;7.43;;;13.00;99.90;;;;;;5025185;28;20418;-72
2023/05/28 05:16:19;;;;;;;10.63;8.00;;;13.10;99.90;;;;;;5031528;28;20891;-72
2023/05/28 05:18:44;;;;;;;12.43;8.33;;;13.20;99.90;;;;;;5030866;28;20421;-70
2023/05/28 05:21:12;;;;;;;14.60;9.37;;;13.20;99.90;;;;;;5031070;28;20417;-70
2023/05/28 05:23:39;;;;;;;10.60;8.53;;;13.30;99.90;;;;;;5030834;28;20179;-70
2023/05/28 05:26:12;;;;;;;15.23;10.40;;;13.40;99.90;;;;;;5031008;28;20813;-70
2023/05/28 05:28:38;;;;;;;13.67;9.50;;;13.40;99.90;;;;;;5029838;28;20460;-69
2023/05/28 05:31:04;;;;;;;14.30;10.50;;;13.50;99.90;;;;;;5029267;28;20422;-72
2023/05/28 05:33:30;;;;;;;19.20;9.93;;;13.60;99.90;;;;;;5030318;28;20417;-69
2023/05/28 05:35:56;;;;;;;16.03;10.67;;;13.60;99.90;;;;;;5030655;28;20178;-69
2023/05/28 05:38:21;;;;;;;13.33;9.10;;;13.60;99.90;;;;;;5030323;28;20185;-69
2023/05/28 05:40:47;;;;;;;11.40;9.73;;;13.60;99.90;;;;;;5030402;28;20647;-69
2023/05/28 05:43:13;;;;;;;14.30;10.53;;;13.70;99.90;;;;;;5030092;28;20174;-71
2023/05/28 05:45:38;;;;;;;16.63;10.40;;;13.80;99.90;;;;;;5030581;28;20651;-70
2023/05/28 05:48:04;;;;;;;11.70;8.93;;;13.90;99.90;;;;;;5030003;28;20214;-69
2023/05/28 05:50:30;;;;;;;12.27;9.87;;;14.10;99.90;;;;;;5030469;28;20218;-69
2023/05/28 05:52:55;;;;;;;16.17;11.57;;;14.20;99.90;;;;;;5030377;28;20516;-71
2023/05/28 05:55:21;;;;;;;13.00;10.93;;;14.40;99.90;;;;;;5030139;28;20182;-70
2023/05/28 05:57:49;;;;;;;17.13;12.50;;;14.80;99.90;;;;;;5030056;28;20682;-70
2023/05/28 06:00:15;;;;;;;15.97;12.20;;;15.00;99.90;;;;;;5030067;28;20178;-71
2023/05/28 06:02:41;;;;;;;18.30;12.80;;;15.30;99.90;;;;;;5030237;28;20421;-70
2023/05/28 06:05:07;;;;;;;19.43;12.57;;;15.50;99.90;;;;;;5029321;28;20202;-70
2023/05/28 06:07:32;;;;;;;16.90;14.60;;;15.60;99.90;;;;;;5029685;28;20215;-69
2023/05/28 06:09:58;;;;;;;21.77;16.50;;;15.80;99.90;;;;;;5029788;28;20417;-70
2023/05/28 06:12:24;;;;;;;29.07;18.40;;;16.00;99.90;;;;;;5030111;28;20190;-70
2023/05/28 06:14:50;;;;;;;21.10;17.50;;;16.20;99.90;;;;;;5029559;28;20183;-71
2023/05/28 06:17:15;;;;;;;16.03;13.90;;;16.40;99.90;;;;;;5029502;28;20203;-69
2023/05/28 06:19:41;;;;;;;17.50;13.63;;;16.50;99.90;;;;;;5029444;28;20782;-70
2023/05/28 06:22:10;;;;;;;12.80;10.63;;;16.60;99.90;;;;;;5029883;28;20269;-69
2023/05/28 06:24:38;;;;;;;13.67;9.90;;;16.80;99.90;;;;;;5029435;28;20421;-71
2023/05/28 06:27:05;;;;;;;15.50;9.87;;;16.90;99.90;;;;;;5029193;28;20516;-70
2023/05/28 06:29:30;;;;;;;13.47;9.47;;;17.00;99.90;;;;;;5029395;28;20460;-70
2023/05/28 06:31:56;;;;;;;12.67;9.30;;;17.10;99.90;;;;;;5025345;28;20429;-72
2023/05/28 06:34:22;;;;;;;13.93;9.73;;;17.20;99.90;;;;;;5028965;28;20834;-70
2023/05/28 06:36:48;;;;;;;12.50;9.47;;;17.30;99.90;;;;;;5029049;28;20429;-69
2023/05/28 06:39:14;;;;;;;14.13;9.77;;;17.50;99.90;;;;;;5029616;28;20201;-69
2023/05/28 06:41:39;;;;;;;13.63;8.70;;;17.60;99.90;;;;;;5028942;28;20206;-69
2023/05/28 06:44:05;;;;;;;13.07;9.40;;;17.70;99.90;;;;;;5029144;28;20417;-69
2023/05/28 06:46:32;;;;;;;12.50;8.97;;;17.80;99.90;;;;;;5029325;28;20206;-70
2023/05/28 06:48:57;;;;;;;15.00;9.10;;;17.90;99.90;;;;;;5028940;28;20210;-70
2023/05/28 06:51:23;;;;;;;9.80;8.03;;;18.00;99.90;;;;;;5029149;28;20409;-70
2023/05/28 06:53:49;;;;;;;13.30;8.00;;;18.10;99.90;;;;;;5026887;28;20197;-71
2023/05/28 06:56:15;;;;;;;10.77;8.40;;;18.10;99.90;;;;;;5025821;28;20202;-70
2023/05/28 06:58:41;;;;;;;13.10;8.27;;;18.20;99.90;;;;;;5026316;28;20429;-70
2023/05/28 07:01:06;;;;;;;13.13;8.60;;;18.30;99.90;;;;;;5021620;28;20186;-71
2023/05/28 07:03:32;;;;;;;11.43;7.50;;;18.30;99.90;;;;;;5025145;28;20199;-70
2023/05/28 07:05:58;;;;;;;12.53;7.90;;;18.30;99.90;;;;;;5027680;28;20321;-69
2023/05/28 07:08:23;;;;;;;11.57;7.97;;;18.30;99.90;;;;;;5021355;28;20300;-71
2023/05/28 07:10:49;;;;;;;11.50;8.30;;;18.30;99.90;;;;;;5023164;28;20186;-71
2023/05/28 07:13:15;;;;;;;9.70;7.33;;;18.30;99.90;;;;;;5027331;28;20564;-69
2023/05/28 07:15:40;;;;;;;8.77;7.00;;;18.30;99.90;;;;;;5028168;28;20269;-70
2023/05/28 07:18:06;;;;;;;11.37;7.43;;;18.30;99.90;;;;;;5023546;28;20214;-69
2023/05/28 07:20:32;;;;;;;8.00;6.40;;;18.30;99.90;;;;;;5025636;28;20195;-71
2023/05/28 07:22:57;;;;;;;10.10;7.67;;;18.40;99.90;;;;;;5026867;28;20174;-71
2023/05/28 07:25:23;;;;;;;9.77;6.77;;;18.30;99.90;;;;;;5016139;28;20245;-69
2023/05/28 07:27:49;;;;;;;9.57;6.50;;;18.30;99.90;;;;;;5017334;28;20217;-69
2023/05/28 07:30:16;;;;;;;8.63;7.43;;;18.40;99.90;;;;;;5023263;28;20231;-69
2023/05/28 07:32:42;;;;;;;10.53;7.80;;;18.50;99.90;;;;;;5029115;28;20830;-70
2023/05/28 07:35:08;;;;;;;10.63;7.17;;;18.60;99.90;;;;;;5028326;28;20437;-69
2023/05/28 07:37:33;;;;;;;10.27;7.33;;;18.70;99.90;;;;;;5025111;28;20774;-69
2023/05/28 07:39:59;;;;;;;8.60;7.00;;;18.80;99.90;;;;;;5027485;28;20475;-70
2023/05/28 07:42:25;;;;;;;11.00;6.90;;;18.80;99.90;;;;;;5029369;28;20293;-70
2023/05/28 07:44:51;;;;;;;10.77;6.60;;;18.70;99.90;;;;;;5025574;28;20206;-70
2023/05/28 07:47:16;;;;;;;11.70;7.33;;;18.70;99.90;;;;;;5027927;28;20518;-70
2023/05/28 07:49:42;;;;;;;11.73;6.73;;;18.60;99.90;;;;;;5027566;28;20202;-69
2023/05/28 07:52:09;;;;;;;15.33;7.53;;;18.60;99.90;;;;;;5031177;28;20222;-69
2023/05/28 07:54:34;;;;;;;10.10;6.27;;;18.60;99.90;;;;;;5027985;28;20667;-71
2023/05/28 07:57:02;;;;;;;9.03;6.70;;;18.70;99.90;;;;;;5026806;28;20512;-69
2023/05/28 07:59:28;;;;;;;7.93;6.23;;;18.70;99.90;;;;;;5024888;28;20258;-70
2023/05/28 08:01:54;;;;;;;7.73;6.20;;;18.70;99.90;;;;;;5025495;28;21036;-71
2023/05/28 08:04:20;;;;;;;7.90;6.40;;;18.70;99.90;;;;;;5024561;28;20527;-70
2023/05/28 08:06:45;;;;;;;11.43;5.90;;;18.70;99.90;;;;;;5025622;28;20262;-70
2023/05/28 08:09:11;;;;;;;10.50;6.83;;;18.60;99.90;;;;;;5024252;28;20219;-70
2023/05/28 08:11:36;;;;;;;7.67;5.63;;;18.50;99.90;;;;;;5022218;28;20422;-69
2023/05/28 08:14:02;;;;;;;8.47;6.63;;;18.50;99.90;;;;;;5029189;28;20202;-70
2023/05/28 08:16:28;;;;;;;11.40;5.93;;;18.50;99.90;;;;;;5028450;28;20222;-71
2023/05/28 08:18:54;;;;;;;13.03;5.97;;;18.60;99.90;;;;;;5026807;28;20237;-70
2023/05/28 08:21:20;;;;;;;8.90;5.83;;;18.60;99.90;;;;;;5025879;28;20305;-69
2023/05/28 08:23:45;;;;;;;8.30;5.57;;;18.70;99.90;;;;;;5028992;28;20210;-71
2023/05/28 08:26:11;;;;;;;11.73;6.07;;;18.70;99.90;;;;;;5024317;28;20476;-70
2023/05/28 08:28:37;;;;;;;9.80;5.33;;;18.70;99.90;;;;;;5023768;28;20217;-69
2023/05/28 08:31:02;;;;;;;9.13;5.50;;;18.80;99.90;;;;;;5023179;28;20183;-70
2023/05/28 08:33:28;;;;;;;8.20;5.57;;;18.90;99.90;;;;;;5021446;28;20183;-71
2023/05/28 08:35:54;;;;;;;13.03;6.50;;;18.90;99.90;;;;;;5023898;28;20549;-71
2023/05/28 08:38:19;;;;;;;7.33;5.70;;;19.00;99.90;;;;;;5025137;28;20537;-70
2023/05/28 08:40:50;;;;;;;9.53;5.30;;;19.00;99.90;;;;;;5022730;28;20210;-70
2023/05/28 08:43:16;;;;;;;8.77;5.07;;;19.00;99.90;;;;;;5020991;28;20198;-69
2023/05/28 08:45:42;;;;;;;8.60;5.23;;;19.10;99.90;;;;;;5028807;28;20425;-70
2023/05/28 08:48:07;;;;;;;11.10;4.90;;;19.20;99.90;;;;;;5030969;28;20236;-70
2023/05/28 08:50:38;;;;;;;7.47;4.73;;;19.20;99.90;;;;;;5031017;28;20236;-69
2023/05/28 08:53:07;;;;;;;6.90;4.70;;;19.30;99.90;;;;;;5030774;28;20183;-70
2023/05/28 08:55:34;;;;;;;9.23;4.80;;;19.40;99.90;;;;;;5029523;28;20972;-71
2023/05/28 08:58:00;;;;;;;5.73;5.13;;;19.50;98.90;;;;;;5029098;28;20568;-70
2023/05/28 09:00:26;;;;;;;9.73;5.20;;;19.60;99.30;;;;;;5030777;28;20460;-70
2023/05/28 09:02:52;;;;;;;5.77;4.40;;;19.70;99.00;;;;;;5024951;28;20183;-71
2023/05/28 09:05:17;;;;;;;6.20;4.17;;;19.80;98.60;;;;;;5029197;28;20468;-70
2023/05/28 09:07:44;;;;;;;6.67;4.00;;;20.00;98.20;;;;;;5028574;28;20554;-72
2023/05/28 09:10:11;;;;;;;8.30;4.10;;;20.10;98.60;;;;;;5030399;28;20175;-72
2023/05/28 09:12:40;;;;;;;6.23;4.40;;;20.30;98.40;;;;;;5030610;28;20429;-70
2023/05/28 09:15:07;;;;;;;5.93;4.40;;;20.40;98.00;;;;;;5029356;28;20421;-70
2023/05/28 09:17:33;;;;;;;9.30;4.80;;;20.60;98.50;;;;;;5028907;28;20441;-71
2023/05/28 09:20:04;;;;;;;9.80;4.30;;;20.60;97.80;;;;;;5030477;28;20878;-70
2023/05/28 09:22:31;;;;;;;6.10;4.23;;;20.80;97.00;;;;;;5030327;28;20527;-71
2023/05/28 09:24:56;;;;;;;6.00;4.10;;;20.80;97.40;;;;;;5030366;28;20413;-71
2023/05/28 09:27:23;;;;;;;7.93;3.73;;;21.00;96.40;;;;;;5029744;28;20997;-71
2023/05/28 09:29:49;;;;;;;6.07;3.70;;;21.00;96.90;;;;;;5032055;28;20182;-72
2023/05/28 09:32:22;;;;;;;5.63;3.77;;;21.10;96.30;;;;;;5029675;28;20453;-71
2023/05/28 09:34:50;;;;;;;8.10;3.90;;;21.20;96.80;;;;;;5030227;28;20971;-71
2023/05/28 09:37:17;;;;;;;6.40;4.07;;;21.40;96.00;;;;;;5029855;28;20441;-71
2023/05/28 09:39:43;;;;;;;5.90;4.27;;;21.40;95.90;;;;;;5028327;28;20425;-72
2023/05/28 09:42:10;;;;;;;6.67;3.87;;;21.50;95.20;;;;;;5030414;28;20425;-71
2023/05/28 09:44:38;;;;;;;7.43;3.93;;;21.60;94.50;;;;;;5027351;28;21478;-70
2023/05/28 09:47:14;;;;;;;6.00;4.17;;;21.60;94.50;;;;;;5029582;28;20453;-70
2023/05/28 09:49:43;;;;;;;6.20;4.23;;;21.70;95.30;;;;;;5029360;28;20429;-70
2023/05/28 09:52:10;;;;;;;6.10;4.33;;;21.80;94.30;;;;;;5029314;28;20418;-71
2023/05/28 09:54:37;;;;;;;6.63;4.47;;;21.80;94.60;;;;;;5028658;28;20425;-71
2023/05/28 09:57:05;;;;;;;5.27;3.50;;;21.90;95.40;;;;;;5029436;28;20435;-71
2023/05/28 09:59:32;;;;;;;7.50;4.03;;;22.00;94.60;;;;;;5029260;28;20448;-70
2023/05/28 10:02:23;;;;;;;6.27;3.77;;;22.10;94.80;;;;;;5029700;28;20427;-70
2023/05/28 10:04:54;;;;;;;6.40;3.60;;;22.20;95.00;;;;;;5028753;28;20429;-70
2023/05/28 10:07:24;;;;;;;6.23;3.73;;;22.30;95.30;;;;;;5027789;28;20849;-70
2023/05/28 10:09:51;;;;;;;7.83;3.73;;;22.50;93.80;;;;;;5028893;28;20417;-71
2023/05/28 10:12:19;;;;;;;7.03;3.47;;;22.60;95.80;;;;;;5029553;28;20421;-71
2023/05/28 10:14:46;;;;;;;7.70;3.70;;;22.70;93.90;;;;;;5028807;28;20817;-71
2023/05/28 10:17:13;;;;;;;8.10;4.27;;;22.70;93.50;;;;;;5029057;28;20448;-70
2023/05/28 10:19:40;;;;;;;5.17;3.90;;;22.70;93.60;;;;;;5028693;28;20432;-71
2023/05/28 10:22:07;;;;;;;5.93;4.13;;;22.80;92.50;;;;;;5029182;28;20413;-70
2023/05/28 10:24:33;;;;;;;5.03;3.83;;;22.80;92.50;;;;;;5028629;28;20429;-71
2023/05/28 10:26:59;;;;;;;6.63;3.67;;;22.70;92.60;;;;;;5028450;28;20449;-71
2023/05/28 10:29:25;;;;;;;7.20;3.80;;;22.70;94.00;;;;;;5028507;28;20459;-71
2023/05/28 10:32:01;;;;;;;5.87;3.50;;;22.70;93.00;;;;;;5024466;28;20187;-70
2023/05/28 10:34:31;;;;;;;5.20;3.70;;;22.80;94.70;;;;;;5025179;28;20424;-70
2023/05/28 10:37:02;;;;;;;8.30;4.03;;;22.90;94.10;;;;;;5028615;28;20437;-71
2023/05/28 10:39:43;;;;;;;6.70;4.50;;;23.00;92.60;;;;;;5028297;28;20504;-70
2023/05/28 10:42:13;;;;;;;5.67;3.60;;;23.10;91.50;;;;;;5023264;28;20424;-70
2023/05/28 10:45:00;;;;;;;5.23;3.60;;;23.00;91.50;;;;;;5028154;28;20496;-71
2023/05/28 10:47:35;;;;;;;6.83;4.10;;;23.10;93.20;;;;;;5028312;28;20472;-71
2023/05/28 10:50:15;;;;;;;5.73;4.10;;;23.10;92.40;;;;;;5026992;28;20816;-71
2023/05/28 10:52:41;;;;;;;7.67;4.73;;;23.20;91.20;;;;;;5029113;28;20478;-71
2023/05/28 10:55:10;;;;;;;5.00;3.60;;;23.30;93.30;;;;;;5028414;28;20417;-71
2023/05/28 10:57:47;;;;;;;5.50;3.97;;;23.40;92.30;;;;;;5026804;28;20771;-71
2023/05/28 11:00:22;;;;;;;6.10;3.80;;;23.40;92.20;;;;;;5028173;28;20447;-71
2023/05/28 11:02:52;;;;;;;5.80;3.77;;;23.40;90.90;;;;;;5027413;28;20914;-72
2023/05/28 11:05:23;;;;;;;7.20;3.60;;;23.40;91.20;;;;;;5027340;28;20437;-71
2023/05/28 11:07:49;;;;;;;6.33;3.47;;;23.50;91.90;;;;;;5027909;28;20473;-71
2023/05/28 11:10:16;;;;;;;4.80;3.27;;;23.40;92.50;;;;;;5027762;28;20492;-71
2023/05/28 11:12:45;;;;;;;5.77;3.87;;;23.50;91.90;;;;;;5028078;28;20229;-71
2023/05/28 11:15:12;;;;;;;5.00;3.17;;;23.60;92.50;;;;;;5026734;28;20905;-71
2023/05/28 11:17:45;;;;;;;5.90;3.57;;;23.60;91.20;;;;;;5028029;28;20441;-71
2023/05/28 11:20:20;;;;;;;5.40;3.93;;;23.60;90.00;;;;;;5027602;28;20884;-70
2023/05/28 11:22:47;;;;;;;5.03;3.10;;;23.50;89.40;;;;;;5028126;28;20863;-72
2023/05/28 11:25:13;;;;;;;9.33;4.30;;;23.40;91.10;;;;;;5025512;28;20452;-72
2023/05/28 11:27:40;;;;;;;5.40;3.30;;;23.40;91.00;;;;;;5025566;28;20900;-70
2023/05/28 11:30:11;;;;;;;4.33;3.47;;;23.40;91.90;;;;;;5027745;28;20810;-71
2023/05/28 11:32:38;;;;;;;4.10;3.07;;;23.50;89.40;;;;;;5028345;28;20412;-70
2023/05/28 11:35:04;;;;;;;5.90;3.47;;;23.50;90.90;;;;;;5022841;28;20414;-70
2023/05/28 11:37:32;;;;;;;4.50;3.47;;;23.60;88.80;;;;;;5018101;28;20829;-71
2023/05/28 11:39:59;;;;;;;6.80;3.20;;;23.70;91.30;;;;;;5016574;28;20410;-71
2023/05/28 11:42:27;;;;;;;4.57;3.17;;;23.80;90.60;;;;;;5018088;28;20459;-72
2023/05/28 11:44:53;;;;;;;4.50;3.37;;;23.80;90.80;;;;;;5018278;28;20426;-71
2023/05/28 11:47:20;;;;;;;4.60;3.37;;;23.80;90.20;;;;;;5016559;28;20462;-71
2023/05/28 11:49:46;;;;;;;5.57;3.00;;;24.00;87.40;;;;;;5017684;28;20210;-70
2023/05/28 11:52:15;;;;;;;6.60;3.47;;;24.00;88.70;;;;;;5018621;28;20489;-71
2023/05/28 11:54:42;;;;;;;5.03;3.60;;;24.00;84.60;;;;;;5016603;28;20753;-71
2023/05/28 11:57:08;;;;;;;7.87;3.67;;;24.10;84.70;;;;;;5017807;28;20440;-72
2023/05/28 11:59:34;;;;;;;6.00;3.47;;;24.10;86.60;;;;;;5018237;28;20437;-72
2023/05/28 12:02:16;;;;;;;3.50;3.20;;;24.20;88.80;;;;;;5016963;28;20415;-70
2023/05/28 12:05:01;;;;;;;4.37;3.60;;;24.30;87.70;;;;;;5018266;28;20455;-71
2023/05/28 12:07:35;;;;;;;6.23;3.70;;;24.40;86.70;;;;;;5027763;28;20467;-70
2023/05/28 12:10:10;;;;;;;4.93;3.80;;;24.40;81.50;;;;;;5027667;28;20545;-71
2023/05/28 12:12:47;;;;;;;6.63;3.70;;;24.40;85.40;;;;;;5028174;28;20432;-71
2023/05/28 12:15:13;;;;;;;5.17;3.60;;;24.40;89.90;;;;;;5027877;28;20416;-71
2023/05/28 12:17:41;;;;;;;4.57;3.27;;;24.40;88.90;;;;;;5030224;28;20436;-71
2023/05/28 12:20:36;;;;;;;6.40;3.27;;;24.40;86.30;;;;;;5031591;28;20467;-71
2023/05/28 12:23:07;;;;;;;4.70;3.27;;;24.40;87.10;;;;;;5030293;28;20444;-71
2023/05/28 12:25:42;;;;;;;6.00;3.50;;;24.40;88.60;;;;;;5031475;28;20763;-72
2023/05/28 12:28:07;;;;;;;6.33;3.77;;;24.40;83.40;;;;;;5031305;28;20475;-69
2023/05/28 12:30:33;;;;;;;5.10;2.97;;;24.40;83.70;;;;;;5031192;28;20425;-70
2023/05/28 12:32:59;;;;;;;5.43;3.67;;;24.30;82.60;;;;;;5031409;28;20193;-71
2023/05/28 12:35:25;;;;;;;5.13;3.10;;;24.10;83.10;;;;;;5031356;28;20550;-71
2023/05/28 12:37:50;;;;;;;7.40;4.10;;;24.10;85.00;;;;;;5029781;28;20449;-71
2023/05/28 12:40:16;;;;;;;3.30;2.90;;;24.00;86.60;;;;;;5031108;28;20213;-71
2023/05/28 12:42:42;;;;;;;6.20;3.20;;;24.10;81.20;;;;;;5031362;28;20705;-70